createdAt,value
2022-12-24T00:01:20.915Z,36.13
2022-12-24T00:03:48.551Z,33.53
2022-12-24T00:06:24.286Z,36.20
2022-12-24T00:08:52.448Z,29.57
2022-12-24T00:11:20.147Z,28.57
2022-12-24T00:13:47.783Z,25.43
2022-12-24T00:16:15.106Z,25.40
2022-12-24T00:18:46.211Z,24.20
2022-12-24T00:21:15.370Z,18.97
2022-12-24T00:23:42.713Z,17.17
2022-12-24T00:26:09.817Z,17.20
2022-12-24T00:28:37.152Z,16.23
2022-12-24T00:31:13.382Z,15.60
2022-12-24T00:33:41.107Z,17.60
2022-12-24T00:36:09.821Z,18.60
2022-12-24T00:38:37.407Z,16.83
2022-12-24T00:41:06.928Z,26.20
2022-12-24T00:43:34.166Z,34.37
2022-12-24T00:46:01.540Z,43.23
2022-12-24T00:48:28.903Z,32.23
2022-12-24T00:50:56.397Z,29.37
2022-12-24T00:53:23.675Z,30.30
2022-12-24T00:55:51.013Z,22.97
2022-12-24T00:58:18.432Z,21.77
2022-12-24T01:00:45.690Z,19.60
2022-12-24T01:03:13.134Z,28.97
2022-12-24T01:05:40.900Z,20.00
2022-12-24T01:08:08.122Z,32.67
2022-12-24T01:10:38.586Z,36.90
2022-12-24T01:13:05.777Z,44.63
2022-12-24T01:15:33.112Z,37.07
2022-12-24T01:18:00.456Z,22.60
2022-12-24T01:20:31.806Z,20.40
2022-12-24T01:22:59.191Z,21.97
2022-12-24T01:25:26.324Z,15.57
2022-12-24T01:27:53.537Z,17.17
2022-12-24T01:30:20.903Z,14.13
2022-12-24T01:32:48.077Z,14.13
2022-12-24T01:35:15.797Z,11.80
2022-12-24T01:37:43.647Z,14.67
2022-12-24T01:40:34.754Z,18.70
2022-12-24T01:43:20.955Z,17.83
2022-12-24T01:45:56.801Z,18.60
2022-12-24T01:48:35.357Z,16.63
2022-12-24T01:51:30.008Z,17.23
2022-12-24T01:54:29.753Z,17.70
2022-12-24T01:57:09.751Z,24.03
2022-12-24T01:59:38.769Z,16.97
2022-12-24T02:02:06.391Z,17.03
2022-12-24T02:05:10.356Z,19.73
2022-12-24T02:07:38.474Z,23.03
2022-12-24T02:10:08.048Z,17.43
2022-12-24T02:12:37.933Z,22.23
2022-12-24T02:15:07.745Z,18.87
2022-12-24T02:17:58.730Z,23.70
2022-12-24T02:20:36.692Z,24.60
2022-12-24T02:23:21.529Z,22.40
2022-12-24T02:26:09.796Z,25.73
2022-12-24T02:29:12.477Z,18.73
2022-12-24T02:31:54.071Z,18.70
2022-12-24T02:35:00.251Z,18.53
2022-12-24T02:37:34.539Z,26.97
2022-12-24T02:40:16.571Z,28.53
2022-12-24T02:42:49.846Z,24.77
2022-12-24T02:45:31.588Z,33.70
2022-12-24T02:48:00.407Z,34.63
2022-12-24T02:50:28.260Z,27.97
2022-12-24T02:52:55.493Z,28.80
2022-12-24T02:55:29.123Z,31.53
2022-12-24T02:58:02.623Z,27.07
2022-12-24T03:00:53.824Z,48.03
2022-12-24T03:03:46.876Z,59.80
2022-12-24T03:06:27.630Z,45.27
2022-12-24T03:09:00.499Z,35.30
2022-12-24T03:11:28.113Z,30.33
2022-12-24T03:13:57.955Z,26.90
2022-12-24T03:16:27.666Z,26.17
2022-12-24T03:18:58.298Z,24.87
2022-12-24T03:21:35.885Z,20.70
2022-12-24T03:24:04.070Z,22.70
2022-12-24T03:26:32.871Z,23.80
2022-12-24T03:29:00.593Z,25.20
2022-12-24T03:31:28.044Z,20.57
2022-12-24T03:33:55.326Z,16.73
2022-12-24T03:36:25.595Z,15.30
2022-12-24T03:38:52.789Z,15.03
2022-12-24T03:41:19.972Z,15.10
2022-12-24T03:43:47.743Z,14.43
2022-12-24T03:46:15.048Z,14.17
2022-12-24T03:48:42.214Z,14.83
2022-12-24T03:51:19.316Z,14.60
2022-12-24T03:53:46.597Z,14.30
2022-12-24T03:56:14.684Z,13.90
2022-12-24T03:58:42.180Z,15.90
2022-12-24T04:01:09.456Z,21.40
2022-12-24T04:03:36.924Z,32.30
2022-12-24T04:06:06.717Z,26.33
2022-12-24T04:08:34.643Z,27.07
2022-12-24T04:11:07.787Z,27.23
2022-12-24T04:13:37.157Z,23.27
2022-12-24T04:16:10.558Z,23.67
2022-12-24T04:18:38.671Z,23.40
2022-12-24T04:21:07.315Z,24.53
2022-12-24T04:23:36.835Z,19.20
2022-12-24T04:26:07.000Z,15.63
2022-12-24T04:28:35.546Z,13.27
2022-12-24T04:31:05.594Z,10.03
2022-12-24T04:33:32.931Z,9.00
2022-12-24T04:36:01.928Z,8.93
2022-12-24T04:38:30.548Z,9.10
2022-12-24T04:41:02.266Z,8.67
2022-12-24T04:43:30.423Z,7.90
2022-12-24T04:45:57.881Z,8.67
2022-12-24T04:48:25.066Z,8.67
2022-12-24T04:50:52.195Z,7.77
2022-12-24T04:53:19.392Z,7.90
2022-12-24T04:55:47.105Z,7.20
2022-12-24T04:58:14.817Z,7.87
2022-12-24T05:00:42.279Z,7.87
2022-12-24T05:03:09.693Z,6.93
2022-12-24T05:05:36.872Z,6.60
2022-12-24T05:08:04.510Z,7.60
2022-12-24T05:10:31.653Z,6.80
2022-12-24T05:12:58.940Z,5.47
2022-12-24T05:15:26.409Z,5.50
2022-12-24T05:17:53.589Z,5.17
2022-12-24T05:20:20.708Z,4.83
2022-12-24T05:23:06.844Z,4.47
2022-12-24T05:25:57.514Z,4.30
2022-12-24T05:28:29.193Z,3.73
2022-12-24T05:30:56.516Z,3.23
2022-12-24T05:33:23.774Z,3.30
2022-12-24T05:35:52.959Z,3.43
2022-12-24T05:38:20.243Z,3.57
2022-12-24T05:40:48.351Z,3.70
2022-12-24T05:43:15.571Z,3.00
2022-12-24T05:45:42.779Z,4.30
2022-12-24T05:48:09.937Z,4.30
2022-12-24T05:50:40.914Z,6.53
2022-12-24T05:53:08.515Z,3.60
2022-12-24T05:55:35.732Z,4.47
2022-12-24T05:58:02.895Z,3.87
2022-12-24T06:00:30.174Z,3.70
2022-12-24T06:02:58.052Z,3.70
2022-12-24T06:05:25.243Z,4.03
2022-12-24T06:07:52.462Z,3.43
2022-12-24T06:10:19.826Z,3.90
2022-12-24T06:12:47.056Z,4.20
2022-12-24T06:15:20.308Z,3.80
2022-12-24T06:17:50.749Z,4.03
2022-12-24T06:20:17.952Z,3.80
2022-12-24T06:22:45.107Z,3.33
2022-12-24T06:25:12.881Z,4.10
2022-12-24T06:27:40.348Z,3.50
2022-12-24T06:30:08.055Z,4.30
2022-12-24T06:32:35.197Z,3.63
2022-12-24T06:35:02.489Z,3.47
2022-12-24T06:37:30.402Z,3.40
2022-12-24T06:39:57.618Z,3.63
2022-12-24T06:42:24.757Z,2.73
2022-12-24T06:44:52.002Z,3.10
2022-12-24T06:47:19.812Z,3.13
2022-12-24T06:49:46.967Z,2.03
2022-12-24T06:52:15.195Z,2.80
2022-12-24T06:54:42.415Z,2.60
2022-12-24T06:57:09.877Z,2.47
2022-12-24T06:59:37.084Z,3.00
2022-12-24T07:02:04.417Z,2.83
2022-12-24T07:04:31.824Z,2.80
2022-12-24T07:06:59.022Z,2.30
2022-12-24T07:09:26.358Z,2.93
2022-12-24T07:11:55.380Z,2.40
2022-12-24T07:14:22.565Z,2.40
2022-12-24T07:16:55.264Z,2.23
2022-12-24T07:19:25.884Z,2.93
2022-12-24T07:21:53.495Z,2.80
2022-12-24T07:24:20.814Z,2.40
2022-12-24T07:26:48.108Z,1.83
2022-12-24T07:29:15.379Z,2.70
2022-12-24T07:31:42.699Z,2.17
2022-12-24T07:34:09.879Z,2.30
2022-12-24T07:36:37.144Z,1.80
2022-12-24T07:39:04.968Z,2.43
2022-12-24T07:41:36.307Z,2.03
2022-12-24T07:44:06.993Z,2.00
2022-12-24T07:46:35.562Z,3.70
2022-12-24T07:49:02.832Z,1.70
2022-12-24T07:51:30.131Z,1.77
2022-12-24T07:53:57.571Z,2.30
2022-12-24T07:56:24.760Z,1.57
2022-12-24T07:58:52.631Z,1.77
2022-12-24T08:01:20.172Z,1.47
2022-12-24T08:03:47.734Z,1.50
2022-12-24T08:06:15.036Z,1.40
2022-12-24T08:08:42.282Z,1.57
2022-12-24T08:11:09.452Z,1.13
2022-12-24T08:13:37.111Z,1.70
2022-12-24T08:16:05.007Z,1.57
2022-12-24T08:18:32.397Z,1.97
2022-12-24T08:21:00.303Z,1.60
2022-12-24T08:23:27.460Z,1.83
2022-12-24T08:25:54.749Z,1.97
2022-12-24T08:28:22.329Z,2.40
2022-12-24T08:30:51.062Z,1.97
2022-12-24T08:33:18.932Z,1.90
2022-12-24T08:35:50.737Z,1.93
2022-12-24T08:38:17.968Z,2.33
2022-12-24T08:40:49.324Z,2.43
2022-12-24T08:43:17.627Z,2.37
2022-12-24T08:45:45.497Z,2.20
2022-12-24T08:48:13.174Z,2.10
2022-12-24T08:50:41.458Z,2.47
2022-12-24T08:53:10.270Z,3.23
2022-12-24T08:55:38.328Z,2.97
2022-12-24T08:58:05.907Z,2.60
2022-12-24T09:00:33.379Z,2.67
2022-12-24T09:03:00.812Z,2.53
2022-12-24T09:05:28.439Z,2.73
2022-12-24T09:07:55.675Z,2.70
2022-12-24T09:10:23.345Z,2.80
2022-12-24T09:12:51.561Z,2.67
2022-12-24T09:15:19.340Z,2.80
2022-12-24T09:17:46.621Z,2.70
2022-12-24T09:20:14.181Z,2.90
2022-12-24T09:22:41.538Z,2.80
2022-12-24T09:25:10.760Z,3.20
2022-12-24T09:27:38.563Z,3.50
2022-12-24T09:30:07.258Z,3.40
2022-12-24T09:32:34.929Z,3.20
2022-12-24T09:35:02.288Z,3.00
2022-12-24T09:37:29.837Z,3.33
2022-12-24T09:39:57.173Z,2.90
2022-12-24T09:42:43.902Z,5.70
2022-12-24T09:45:17.954Z,2.93
2022-12-24T09:47:54.755Z,2.60
2022-12-24T09:50:27.813Z,3.20
2022-12-24T09:52:56.517Z,2.90
2022-12-24T09:55:51.900Z,3.00
2022-12-24T09:58:40.130Z,2.80
2022-12-24T10:01:07.649Z,2.87
2022-12-24T10:03:34.924Z,2.97
2022-12-24T10:06:14.793Z,3.33
2022-12-24T10:08:58.861Z,3.00
2022-12-24T10:11:44.937Z,2.50
2022-12-24T10:14:38.818Z,2.87
2022-12-24T10:17:31.685Z,2.50
2022-12-24T10:20:08.170Z,2.30
2022-12-24T10:22:56.795Z,3.00
2022-12-24T10:25:45.798Z,2.53
2022-12-24T10:28:20.006Z,2.73
2022-12-24T10:30:53.620Z,2.60
2022-12-24T10:33:32.943Z,3.30
2022-12-24T10:36:00.282Z,3.27
2022-12-24T10:38:27.548Z,2.83
2022-12-24T10:40:58.916Z,3.57
2022-12-24T10:43:29.144Z,3.80
2022-12-24T10:45:57.479Z,3.50
2022-12-24T10:49:04.979Z,2.97
2022-12-24T10:51:52.984Z,3.83
2022-12-24T10:54:27.256Z,3.87
2022-12-24T10:57:00.554Z,3.33
2022-12-24T10:59:42.503Z,3.10
2022-12-24T11:02:34.792Z,3.40
2022-12-24T11:05:05.166Z,3.30
2022-12-24T11:07:32.675Z,2.97
2022-12-24T11:10:02.515Z,3.57
2022-12-24T11:12:33.261Z,3.50
2022-12-24T11:15:17.904Z,3.70
2022-12-24T11:18:15.174Z,3.33
2022-12-24T11:20:49.290Z,3.43
2022-12-24T11:23:17.962Z,3.73
2022-12-24T11:25:54.114Z,3.37
2022-12-24T11:28:33.705Z,3.17
2022-12-24T11:31:03.053Z,3.37
2022-12-24T11:33:46.606Z,4.53
2022-12-24T11:36:14.484Z,3.70
2022-12-24T11:38:42.081Z,3.50
2022-12-24T11:41:13.528Z,3.53
2022-12-24T11:43:46.537Z,3.90
2022-12-24T11:46:36.330Z,5.13
2022-12-24T11:49:17.201Z,3.80
2022-12-24T11:52:01.527Z,3.90
2022-12-24T11:54:32.235Z,4.30
2022-12-24T11:57:02.951Z,3.93
2022-12-24T11:59:44.281Z,4.03
2022-12-24T12:02:26.368Z,4.50
2022-12-24T12:05:18.699Z,3.37
2022-12-24T12:07:51.383Z,3.73
2022-12-24T12:10:41.396Z,3.60
2022-12-24T12:13:46.303Z,2.87
2022-12-24T12:16:26.486Z,3.50
2022-12-24T12:19:00.537Z,3.60
2022-12-24T12:21:42.754Z,3.87
2022-12-24T12:24:44.426Z,3.53
2022-12-24T12:27:19.824Z,3.60
2022-12-24T12:29:54.592Z,3.13
2022-12-24T12:32:49.354Z,3.97
2022-12-24T12:35:27.796Z,3.43
2022-12-24T12:38:02.351Z,3.33
2022-12-24T12:40:48.401Z,3.40
2022-12-24T12:43:32.107Z,3.10
2022-12-24T12:46:06.281Z,3.43
2022-12-24T12:48:39.741Z,3.17
2022-12-24T12:51:32.060Z,5.80
2022-12-24T12:54:25.275Z,3.80
2022-12-24T12:56:56.817Z,4.00
2022-12-24T12:59:38.491Z,7.23
2022-12-24T13:02:20.855Z,4.27
2022-12-24T13:05:06.525Z,4.90
2022-12-24T13:07:42.778Z,4.10
2022-12-24T13:10:27.892Z,4.07
2022-12-24T13:12:57.692Z,3.90
2022-12-24T13:15:42.695Z,3.77
2022-12-24T13:18:26.605Z,3.80
2022-12-24T13:20:56.465Z,4.73
2022-12-24T13:23:28.190Z,3.37
2022-12-24T13:25:59.132Z,4.20
2022-12-24T13:28:26.299Z,3.53
2022-12-24T13:31:02.864Z,4.97
2022-12-24T13:33:39.260Z,4.67
2022-12-24T13:36:10.343Z,6.17
2022-12-24T13:38:48.487Z,4.63
2022-12-24T13:41:41.400Z,3.10
2022-12-24T13:44:13.307Z,6.07
2022-12-24T13:47:07.076Z,4.97
2022-12-24T13:49:43.860Z,3.70
2022-12-24T13:52:16.496Z,4.13
2022-12-24T13:55:06.752Z,5.70
2022-12-24T13:57:41.938Z,4.70
2022-12-24T14:00:41.560Z,3.37
2022-12-24T14:03:14.903Z,3.50
2022-12-24T14:05:46.868Z,3.73
2022-12-24T14:08:31.754Z,5.47
2022-12-24T14:11:05.313Z,5.30
2022-12-24T14:13:38.661Z,3.90
2022-12-24T14:16:08.708Z,4.70
2022-12-24T14:18:41.887Z,5.23
2022-12-24T14:21:21.999Z,4.13
2022-12-24T14:24:07.124Z,4.73
2022-12-24T14:26:53.365Z,4.40
2022-12-24T14:29:41.115Z,4.63
2022-12-24T14:32:16.118Z,5.07
2022-12-24T14:34:43.807Z,9.23
2022-12-24T14:37:13.954Z,6.47
2022-12-24T14:39:49.659Z,7.07
2022-12-24T14:42:45.281Z,5.40
2022-12-24T14:45:34.856Z,6.47
2022-12-24T14:48:17.085Z,6.33
2022-12-24T14:50:59.605Z,9.90
2022-12-24T14:54:09.760Z,9.30
2022-12-24T14:56:37.115Z,8.20
2022-12-24T14:59:18.879Z,21.47
2022-12-24T15:01:47.104Z,7.70
2022-12-24T15:04:18.965Z,7.63
2022-12-24T15:06:54.823Z,14.00
2022-12-24T15:09:27.755Z,6.60
2022-12-24T15:11:58.855Z,6.60
2022-12-24T15:14:29.139Z,8.23
2022-12-24T15:17:04.685Z,6.20
2022-12-24T15:19:37.009Z,4.73
2022-12-24T15:22:09.871Z,5.43
2022-12-24T15:24:46.648Z,7.80
2022-12-24T15:27:22.048Z,6.27
2022-12-24T15:29:56.136Z,5.73
2022-12-24T15:32:23.712Z,56.13
2022-12-24T15:34:53.838Z,36.77
2022-12-24T15:37:30.087Z,15.33
2022-12-24T15:40:25.230Z,25.43
2022-12-24T15:42:53.109Z,14.77
2022-12-24T15:45:28.198Z,6.83
2022-12-24T15:47:59.530Z,87.40
2022-12-24T15:50:31.026Z,41.40
2022-12-24T15:53:20.969Z,43.57
2022-12-24T15:56:10.841Z,47.20
2022-12-24T15:58:43.606Z,45.80
2022-12-24T16:01:14.150Z,26.40
2022-12-24T16:03:55.156Z,15.90
2022-12-24T16:06:24.209Z,64.90
2022-12-24T16:08:52.106Z,21.40
2022-12-24T16:11:34.387Z,16.87
2022-12-24T16:14:03.991Z,57.13
2022-12-24T16:16:35.046Z,50.03
2022-12-24T16:19:03.607Z,64.80
2022-12-24T16:21:42.120Z,28.23
2022-12-24T16:24:17.549Z,26.80
2022-12-24T16:26:45.310Z,61.47
2022-12-24T16:29:13.003Z,86.77
2022-12-24T16:31:50.413Z,42.50
2022-12-24T16:34:18.912Z,18.40
2022-12-24T16:36:47.224Z,20.40
2022-12-24T16:39:23.703Z,25.83
2022-12-24T16:42:10.445Z,15.20
2022-12-24T16:44:37.833Z,17.20
2022-12-24T16:47:07.475Z,14.50
2022-12-24T16:49:37.909Z,14.03
2022-12-24T16:52:14.905Z,13.60
2022-12-24T16:54:42.652Z,39.57
2022-12-24T16:57:11.115Z,77.23
2022-12-24T16:59:39.473Z,44.43
2022-12-24T17:02:13.998Z,41.73
2022-12-24T17:04:42.518Z,44.67
2022-12-24T17:07:11.681Z,58.17
2022-12-24T17:09:38.845Z,61.57
2022-12-24T17:12:06.516Z,89.67
2022-12-24T17:14:33.735Z,86.03
2022-12-24T17:17:01.026Z,105.17
2022-12-24T17:19:28.216Z,102.73
2022-12-24T17:21:55.364Z,66.47
2022-12-24T17:24:23.170Z,81.77
2022-12-24T17:26:50.530Z,121.07
2022-12-24T17:29:17.769Z,95.87
2022-12-24T17:31:45.371Z,63.90
2022-12-24T17:34:12.847Z,45.87
2022-12-24T17:36:40.647Z,17.20
2022-12-24T17:39:07.858Z,16.63
2022-12-24T17:41:35.108Z,8.77
2022-12-24T17:44:02.502Z,8.87
2022-12-24T17:46:29.714Z,8.07
2022-12-24T17:48:56.901Z,8.73
2022-12-24T17:51:26.935Z,8.00
2022-12-24T17:53:54.274Z,7.37
2022-12-24T17:56:21.529Z,7.43
2022-12-24T17:58:48.843Z,7.37
2022-12-24T18:01:19.273Z,10.50
2022-12-24T18:03:47.545Z,9.63
2022-12-24T18:06:15.283Z,17.07
2022-12-24T18:08:43.229Z,10.13
2022-12-24T18:11:19.130Z,7.70
2022-12-24T18:13:46.987Z,7.10
2022-12-24T18:16:26.127Z,13.30
2022-12-24T18:18:54.559Z,10.67
2022-12-24T18:21:23.628Z,7.63
2022-12-24T18:23:53.254Z,8.13
2022-12-24T18:26:20.903Z,7.63
2022-12-24T18:28:48.081Z,5.63
2022-12-24T18:31:18.429Z,5.40
2022-12-24T18:33:47.266Z,7.37
2022-12-24T18:36:14.822Z,5.73
2022-12-24T18:38:42.285Z,5.07
2022-12-24T18:41:15.350Z,5.77
2022-12-24T18:43:42.835Z,5.57
2022-12-24T18:46:15.318Z,4.63
2022-12-24T18:48:42.712Z,5.13
2022-12-24T18:51:11.049Z,4.87
2022-12-24T18:53:38.426Z,5.30
2022-12-24T18:56:19.490Z,4.73
2022-12-24T18:58:46.998Z,4.63
2022-12-24T19:01:24.432Z,7.03
2022-12-24T19:03:52.369Z,5.73
2022-12-24T19:06:21.834Z,5.60
2022-12-24T19:09:05.432Z,8.20
2022-12-24T19:11:34.809Z,7.83
2022-12-24T19:14:04.010Z,5.13
2022-12-24T19:16:34.425Z,5.50
2022-12-24T19:19:03.551Z,4.87
2022-12-24T19:21:30.804Z,5.53
2022-12-24T19:23:57.992Z,5.90
2022-12-24T19:26:25.867Z,5.23
2022-12-24T19:28:53.940Z,5.50
2022-12-24T19:31:25.107Z,4.63
2022-12-24T19:33:57.263Z,4.47
2022-12-24T19:36:27.963Z,4.53
2022-12-24T19:38:56.627Z,5.10
2022-12-24T19:41:26.284Z,4.87
2022-12-24T19:43:56.342Z,4.67
2022-12-24T19:46:34.423Z,5.73
2022-12-24T19:49:05.455Z,5.23
2022-12-24T19:51:33.149Z,4.87
2022-12-24T19:54:01.436Z,4.73
2022-12-24T19:56:32.496Z,4.93
2022-12-24T19:59:00.770Z,6.80
2022-12-24T20:01:30.945Z,5.77
2022-12-24T20:03:58.835Z,4.93
2022-12-24T20:06:31.773Z,5.00
2022-12-24T20:09:05.428Z,5.03
2022-12-24T20:11:32.912Z,4.27
2022-12-24T20:14:01.958Z,3.87
2022-12-24T20:16:29.908Z,4.30
2022-12-24T20:19:00.192Z,4.17
2022-12-24T20:21:28.042Z,3.93
2022-12-24T20:23:55.993Z,4.67
2022-12-24T20:26:26.164Z,4.37
2022-12-24T20:28:53.422Z,5.13
2022-12-24T20:31:29.211Z,5.30
2022-12-24T20:33:58.080Z,8.43
2022-12-24T20:36:26.317Z,5.90
2022-12-24T20:38:53.676Z,4.67
2022-12-24T20:41:22.933Z,3.40
2022-12-24T20:43:50.393Z,3.90
2022-12-24T20:46:19.350Z,8.27
2022-12-24T20:48:50.071Z,8.10
2022-12-24T20:51:24.224Z,8.07
2022-12-24T20:53:57.778Z,5.93
2022-12-24T20:56:25.352Z,4.13
2022-12-24T20:58:53.259Z,3.33
2022-12-24T21:01:27.101Z,2.93
2022-12-24T21:03:56.777Z,3.03
2022-12-24T21:06:25.487Z,3.77
2022-12-24T21:08:54.201Z,3.37
2022-12-24T21:11:41.010Z,4.43
2022-12-24T21:14:08.989Z,4.37
2022-12-24T21:16:37.794Z,3.13
2022-12-24T21:19:06.368Z,2.97
2022-12-24T21:21:37.152Z,2.97
2022-12-24T21:24:06.290Z,3.13
2022-12-24T21:26:35.120Z,2.93
2022-12-24T21:29:04.841Z,2.90
2022-12-24T21:31:32.733Z,3.40
2022-12-24T21:33:59.970Z,3.27
2022-12-24T21:36:27.249Z,2.80
2022-12-24T21:38:55.034Z,3.30
2022-12-24T21:41:26.234Z,2.90
2022-12-24T21:43:53.594Z,3.20
2022-12-24T21:46:25.288Z,2.70
2022-12-24T21:49:12.324Z,2.83
2022-12-24T21:51:41.810Z,3.47
2022-12-24T21:54:24.217Z,5.93
2022-12-24T21:57:11.842Z,3.53
2022-12-24T21:59:40.455Z,3.23
2022-12-24T22:02:09.659Z,3.33
2022-12-24T22:04:37.195Z,3.20
2022-12-24T22:07:22.958Z,4.23
2022-12-24T22:10:08.842Z,6.90
2022-12-24T22:12:36.617Z,7.17
2022-12-24T22:15:09.640Z,9.53
2022-12-24T22:17:36.838Z,10.83
2022-12-24T22:20:04.327Z,8.37
2022-12-24T22:22:31.579Z,12.47
2022-12-24T22:25:01.938Z,13.50
2022-12-24T22:27:29.328Z,58.17
2022-12-24T22:29:56.564Z,51.17
2022-12-24T22:32:23.711Z,44.77
2022-12-24T22:34:51.028Z,32.83
2022-12-24T22:37:18.179Z,38.27
2022-12-24T22:39:45.464Z,33.87
2022-12-24T22:42:12.641Z,31.43
2022-12-24T22:44:40.142Z,15.53
2022-12-24T22:47:07.420Z,23.27
2022-12-24T22:49:36.410Z,15.00
2022-12-24T22:52:03.786Z,18.27
2022-12-24T22:54:31.216Z,17.33
2022-12-24T22:56:58.570Z,10.83
2022-12-24T22:59:25.762Z,7.50
2022-12-24T23:01:53.950Z,7.47
2022-12-24T23:04:21.441Z,6.27
2022-12-24T23:06:48.687Z,7.93
2022-12-24T23:09:16.925Z,8.03
2022-12-24T23:11:45.153Z,8.00
2022-12-24T23:14:38.676Z,7.43
2022-12-24T23:17:07.072Z,8.33
2022-12-24T23:19:34.517Z,8.47
2022-12-24T23:22:03.069Z,7.63
2022-12-24T23:24:30.733Z,7.47
2022-12-24T23:27:01.678Z,9.00
2022-12-24T23:29:29.747Z,9.70
2022-12-24T23:31:56.982Z,12.57
2022-12-24T23:34:24.320Z,14.30
2022-12-24T23:36:51.626Z,12.17
2022-12-24T23:39:19.110Z,12.90
2022-12-24T23:41:46.320Z,11.83
2022-12-24T23:44:13.442Z,8.60
2022-12-24T23:46:42.129Z,8.50
2022-12-24T23:49:14.936Z,6.80
2022-12-24T23:51:42.380Z,6.80
2022-12-24T23:54:09.565Z,6.27
2022-12-24T23:56:36.738Z,7.33
2022-12-24T23:59:04.631Z,7.63
